createdAt,value
2023-02-08T00:00:39.004Z,26.20
2023-02-08T00:03:06.150Z,29.20
2023-02-08T00:05:33.260Z,29.50
2023-02-08T00:08:03.273Z,28.20
2023-02-08T00:10:30.500Z,29.10
2023-02-08T00:12:59.817Z,29.00
2023-02-08T00:15:28.014Z,28.70
2023-02-08T00:17:55.763Z,29.00
2023-02-08T00:20:22.872Z,29.00
2023-02-08T00:22:50.775Z,27.80
2023-02-08T00:25:19.780Z,27.60
2023-02-08T00:27:46.709Z,28.10
2023-02-08T00:30:13.651Z,28.10
2023-02-08T00:32:40.560Z,28.20
2023-02-08T00:35:07.786Z,27.10
2023-02-08T00:37:34.846Z,28.60
2023-02-08T00:40:02.152Z,28.40
2023-02-08T00:42:29.665Z,25.80
2023-02-08T00:44:57.422Z,26.90
2023-02-08T00:47:24.512Z,28.20
2023-02-08T00:49:51.754Z,27.70
2023-02-08T00:52:18.801Z,27.70
2023-02-08T00:54:46.335Z,29.70
2023-02-08T00:57:13.873Z,26.00
2023-02-08T00:59:40.753Z,25.60
2023-02-08T01:02:09.484Z,28.90
2023-02-08T01:04:37.377Z,31.40
2023-02-08T01:07:04.774Z,29.90
2023-02-08T01:09:32.076Z,27.20
2023-02-08T01:12:05.521Z,24.70
2023-02-08T01:14:33.707Z,29.50
2023-02-08T01:17:00.808Z,26.40
2023-02-08T01:19:31.104Z,27.70
2023-02-08T01:21:58.229Z,25.10
2023-02-08T01:24:25.150Z,28.90
2023-02-08T01:26:52.203Z,26.50
2023-02-08T01:29:19.430Z,29.30
2023-02-08T01:31:46.570Z,27.00
2023-02-08T01:34:13.679Z,30.60
2023-02-08T01:36:43.736Z,26.90
2023-02-08T01:39:11.047Z,28.60
2023-02-08T01:41:43.439Z,31.10
2023-02-08T01:44:13.509Z,29.10
2023-02-08T01:46:42.516Z,32.90
2023-02-08T01:49:23.488Z,29.90
2023-02-08T01:52:10.066Z,21.60
2023-02-08T01:54:43.798Z,29.60
2023-02-08T01:57:11.131Z,29.10
2023-02-08T01:59:40.854Z,24.50
2023-02-08T02:02:10.872Z,27.50
2023-02-08T02:04:38.079Z,35.70
2023-02-08T02:07:05.048Z,29.10
2023-02-08T02:09:52.817Z,29.10
2023-02-08T02:12:19.792Z,28.70
2023-02-08T02:14:46.749Z,34.10
2023-02-08T02:17:14.678Z,29.10
2023-02-08T02:20:02.776Z,27.50
2023-02-08T02:22:45.665Z,26.90
2023-02-08T02:25:41.751Z,25.10
2023-02-08T02:28:15.162Z,28.20
2023-02-08T02:30:51.297Z,28.50
2023-02-08T02:33:40.025Z,28.00
2023-02-08T02:36:36.567Z,25.30
2023-02-08T02:39:40.057Z,28.00
2023-02-08T02:42:32.622Z,27.20
2023-02-08T02:45:30.315Z,29.30
2023-02-08T02:48:11.923Z,28.50
2023-02-08T02:50:54.864Z,31.70
2023-02-08T02:53:51.362Z,29.60
2023-02-08T02:56:23.725Z,30.40
2023-02-08T02:58:50.776Z,34.70
2023-02-08T03:01:25.514Z,32.50
2023-02-08T03:03:53.315Z,30.50
2023-02-08T03:06:59.496Z,34.90
2023-02-08T03:09:35.959Z,30.90
2023-02-08T03:12:10.958Z,32.30
2023-02-08T03:14:58.350Z,29.10
2023-02-08T03:17:41.117Z,31.70
2023-02-08T03:20:10.314Z,35.40
2023-02-08T03:22:41.421Z,33.50
2023-02-08T03:25:23.559Z,39.10
2023-02-08T03:28:09.457Z,27.60
2023-02-08T03:30:46.556Z,35.30
2023-02-08T03:33:18.465Z,34.90
2023-02-08T03:35:56.832Z,35.10
2023-02-08T03:38:30.574Z,35.90
2023-02-08T03:40:58.880Z,35.80
2023-02-08T03:43:42.265Z,38.50
2023-02-08T03:46:22.222Z,38.40
2023-02-08T03:48:53.945Z,38.70
2023-02-08T03:51:20.940Z,29.90
2023-02-08T03:53:48.596Z,34.70
2023-02-08T03:56:22.141Z,36.80
2023-02-08T03:58:57.708Z,39.50
2023-02-08T04:01:38.316Z,33.70
2023-02-08T04:04:05.459Z,36.80
2023-02-08T04:06:32.761Z,35.80
2023-02-08T04:08:59.767Z,35.20
2023-02-08T04:11:28.421Z,35.40
2023-02-08T04:13:56.341Z,37.00
2023-02-08T04:16:23.239Z,37.40
2023-02-08T04:18:50.116Z,36.20
2023-02-08T04:21:17.051Z,37.60
2023-02-08T04:23:44.000Z,39.30
2023-02-08T04:26:11.083Z,38.30
2023-02-08T04:28:38.484Z,36.00
2023-02-08T04:31:05.469Z,43.10
2023-02-08T04:33:33.915Z,41.20
2023-02-08T04:36:00.824Z,37.30
2023-02-08T04:38:27.845Z,41.20
2023-02-08T04:40:54.920Z,45.40
2023-02-08T04:43:21.801Z,39.60
2023-02-08T04:45:51.794Z,40.90
2023-02-08T04:48:19.025Z,39.90
2023-02-08T04:50:46.153Z,39.40
2023-02-08T04:53:13.114Z,42.30
2023-02-08T04:55:40.863Z,40.10
2023-02-08T04:58:08.606Z,40.70
2023-02-08T05:00:36.520Z,43.00
2023-02-08T05:03:06.197Z,42.30
2023-02-08T05:05:33.894Z,45.70
2023-02-08T05:08:02.335Z,46.30
2023-02-08T05:10:29.685Z,45.20
2023-02-08T05:12:56.568Z,49.40
2023-02-08T05:15:23.534Z,46.10
2023-02-08T05:17:50.492Z,48.00
2023-02-08T05:20:18.658Z,50.20
2023-02-08T05:22:45.455Z,46.80
2023-02-08T05:25:12.993Z,43.30
2023-02-08T05:27:40.052Z,45.80
2023-02-08T05:30:07.510Z,49.30
2023-02-08T05:32:35.828Z,52.30
2023-02-08T05:35:03.596Z,49.90
2023-02-08T05:37:31.008Z,60.70
2023-02-08T05:39:59.032Z,60.20
2023-02-08T05:42:26.548Z,51.70
2023-02-08T05:44:53.649Z,48.30
2023-02-08T05:47:22.118Z,49.10
2023-02-08T05:49:48.929Z,43.90
2023-02-08T05:52:16.104Z,47.60
2023-02-08T05:54:43.559Z,44.30
2023-02-08T05:57:11.936Z,40.30
2023-02-08T05:59:39.213Z,50.80
2023-02-08T06:02:07.090Z,44.90
2023-02-08T06:04:37.978Z,41.80
2023-02-08T06:07:06.390Z,52.80
2023-02-08T06:09:33.276Z,50.00
2023-02-08T06:12:00.069Z,44.30
2023-02-08T06:14:27.918Z,47.50
2023-02-08T06:16:55.190Z,45.50
2023-02-08T06:19:22.034Z,42.50
2023-02-08T06:21:49.084Z,45.90
2023-02-08T06:24:16.131Z,46.30
2023-02-08T06:26:43.916Z,47.40
2023-02-08T06:29:10.809Z,47.20
2023-02-08T06:31:38.447Z,44.20
2023-02-08T06:34:05.948Z,46.40
2023-02-08T06:36:33.495Z,47.70
2023-02-08T06:39:00.359Z,46.40
2023-02-08T06:41:27.170Z,45.10
2023-02-08T06:43:54.736Z,47.00
2023-02-08T06:46:22.893Z,44.30
2023-02-08T06:48:49.771Z,46.40
2023-02-08T06:51:16.670Z,48.00
2023-02-08T06:53:43.511Z,42.20
2023-02-08T06:56:10.917Z,43.40
2023-02-08T06:58:38.288Z,45.00
2023-02-08T07:01:05.391Z,44.00
2023-02-08T07:03:33.907Z,44.30
2023-02-08T07:06:05.274Z,42.90
2023-02-08T07:08:33.513Z,44.00
2023-02-08T07:11:08.578Z,41.90
2023-02-08T07:13:36.487Z,41.10
2023-02-08T07:16:04.689Z,39.10
2023-02-08T07:18:31.953Z,38.20
2023-02-08T07:20:58.881Z,40.30
2023-02-08T07:23:25.866Z,39.00
2023-02-08T07:26:00.513Z,41.90
2023-02-08T07:28:27.736Z,49.50
2023-02-08T07:30:59.201Z,54.00
2023-02-08T07:33:30.418Z,59.10
2023-02-08T07:36:05.619Z,48.40
2023-02-08T07:38:36.097Z,44.30
2023-02-08T07:41:05.123Z,45.90
2023-02-08T07:43:34.395Z,41.80
2023-02-08T07:46:09.357Z,44.70
2023-02-08T07:48:39.127Z,43.20
2023-02-08T07:51:08.118Z,41.80
2023-02-08T07:53:36.082Z,36.10
2023-02-08T07:56:03.370Z,40.10
2023-02-08T07:58:30.550Z,39.70
2023-02-08T08:00:59.630Z,39.20
2023-02-08T08:03:28.215Z,42.10
2023-02-08T08:05:55.287Z,37.00
2023-02-08T08:08:22.699Z,42.40
2023-02-08T08:10:49.921Z,51.50
2023-02-08T08:13:17.991Z,45.80
2023-02-08T08:15:46.516Z,49.10
2023-02-08T08:18:14.514Z,50.20
2023-02-08T08:20:42.638Z,52.10
2023-02-08T08:23:09.866Z,47.70
2023-02-08T08:25:37.528Z,49.60
2023-02-08T08:28:04.775Z,48.00
2023-02-08T08:30:34.182Z,50.30
2023-02-08T08:33:01.599Z,53.70
2023-02-08T08:35:28.875Z,50.70
2023-02-08T08:37:55.842Z,46.90
2023-02-08T08:40:25.117Z,51.20
2023-02-08T08:42:53.065Z,47.30
2023-02-08T08:45:21.329Z,42.00
2023-02-08T08:47:48.206Z,42.40
2023-02-08T08:50:17.390Z,44.60
2023-02-08T08:52:44.242Z,49.20
2023-02-08T08:55:12.158Z,44.60
2023-02-08T08:57:39.017Z,45.50
2023-02-08T09:00:06.253Z,44.20
2023-02-08T09:02:34.369Z,43.20
2023-02-08T09:05:04.927Z,46.30
2023-02-08T09:07:32.591Z,48.20
2023-02-08T09:10:03.324Z,43.30
2023-02-08T09:12:30.610Z,43.10
2023-02-08T09:14:57.587Z,45.30
2023-02-08T09:17:24.389Z,52.20
2023-02-08T09:19:51.729Z,43.20
2023-02-08T09:22:19.729Z,42.50
2023-02-08T09:24:46.847Z,42.10
2023-02-08T09:27:14.372Z,42.40
2023-02-08T09:29:41.358Z,45.20
2023-02-08T09:32:10.201Z,47.50
2023-02-08T09:34:37.463Z,48.60
2023-02-08T09:37:06.487Z,47.00
2023-02-08T09:39:34.542Z,47.20
2023-02-08T09:42:01.344Z,48.60
2023-02-08T09:44:51.718Z,44.80
2023-02-08T09:47:25.775Z,45.30
2023-02-08T09:49:57.489Z,46.50
2023-02-08T09:52:47.749Z,46.20
2023-02-08T09:55:57.348Z,36.90
2023-02-08T09:58:29.719Z,29.70
2023-02-08T10:00:56.740Z,30.50
2023-02-08T10:03:36.590Z,30.50
2023-02-08T10:06:08.155Z,27.60
2023-02-08T10:08:37.709Z,30.20
2023-02-08T10:11:42.933Z,28.70
2023-02-08T10:14:22.358Z,27.90
2023-02-08T10:17:17.502Z,24.00
2023-02-08T10:19:50.482Z,24.00
2023-02-08T10:22:18.186Z,23.60
2023-02-08T10:25:04.172Z,21.50
2023-02-08T10:27:40.092Z,23.30
2023-02-08T10:30:37.318Z,24.30
2023-02-08T10:33:33.536Z,23.40
2023-02-08T10:36:13.143Z,25.30
2023-02-08T10:38:46.678Z,25.70
2023-02-08T10:41:22.977Z,22.70
2023-02-08T10:44:16.341Z,21.60
2023-02-08T10:46:46.998Z,22.20
2023-02-08T10:50:02.234Z,24.30
2023-02-08T10:52:29.411Z,24.60
2023-02-08T10:54:57.524Z,24.80
2023-02-08T10:57:33.520Z,23.20
2023-02-08T11:00:02.889Z,23.90
2023-02-08T11:02:32.432Z,24.70
2023-02-08T11:05:07.855Z,32.30
2023-02-08T11:07:36.671Z,38.10
2023-02-08T11:10:20.704Z,24.10
2023-02-08T11:13:03.287Z,33.70
2023-02-08T11:15:53.999Z,26.30
2023-02-08T11:18:33.465Z,26.10
2023-02-08T11:21:05.038Z,26.00
2023-02-08T11:23:40.112Z,25.30
2023-02-08T11:26:19.533Z,23.50
2023-02-08T11:29:13.585Z,20.60
2023-02-08T11:32:04.201Z,20.70
2023-02-08T11:34:38.291Z,26.10
2023-02-08T11:37:15.640Z,23.90
2023-02-08T11:39:44.712Z,20.90
2023-02-08T11:42:37.544Z,20.90
2023-02-08T11:45:05.042Z,23.40
2023-02-08T11:47:33.674Z,23.80
2023-02-08T11:50:07.285Z,24.80
2023-02-08T11:52:37.794Z,25.90
2023-02-08T11:55:17.767Z,29.90
2023-02-08T11:58:04.901Z,24.40
2023-02-08T12:00:36.180Z,27.50
2023-02-08T12:03:25.679Z,26.30
2023-02-08T12:06:20.289Z,28.70
2023-02-08T12:09:14.226Z,25.30
2023-02-08T12:11:45.868Z,26.30
2023-02-08T12:14:35.006Z,28.60
2023-02-08T12:17:43.816Z,25.50
2023-02-08T12:20:33.334Z,24.60
2023-02-08T12:23:39.661Z,25.40
2023-02-08T12:26:28.514Z,32.00
2023-02-08T12:29:45.724Z,27.60
2023-02-08T12:32:48.885Z,26.90
2023-02-08T12:35:37.382Z,29.00
2023-02-08T12:38:32.142Z,32.00
2023-02-08T12:41:10.406Z,36.40
2023-02-08T12:44:07.154Z,37.20
2023-02-08T12:46:49.270Z,36.80
2023-02-08T12:49:38.634Z,36.20
2023-02-08T12:52:24.496Z,38.00
2023-02-08T12:55:00.298Z,42.70
2023-02-08T12:57:28.302Z,40.00
2023-02-08T13:00:00.225Z,36.70
2023-02-08T13:02:58.035Z,36.80
2023-02-08T13:05:28.289Z,36.30
2023-02-08T13:08:40.604Z,34.00
2023-02-08T13:11:19.831Z,36.80
2023-02-08T13:13:56.751Z,32.80
2023-02-08T13:16:26.113Z,38.80
2023-02-08T13:19:13.433Z,33.90
2023-02-08T13:21:42.750Z,33.20
2023-02-08T13:24:22.713Z,35.40
2023-02-08T13:26:49.826Z,34.20
2023-02-08T13:29:18.353Z,37.60
2023-02-08T13:31:49.117Z,35.20
2023-02-08T13:34:23.176Z,36.90
2023-02-08T13:37:01.471Z,37.70
2023-02-08T13:39:39.929Z,38.70
2023-02-08T13:42:20.226Z,35.00
2023-02-08T13:44:51.665Z,38.80
2023-02-08T13:47:26.981Z,36.90
2023-02-08T13:49:56.593Z,38.20
2023-02-08T13:52:46.550Z,36.60
2023-02-08T13:55:33.952Z,35.10
2023-02-08T13:58:03.886Z,35.80
2023-02-08T14:00:32.969Z,33.70
2023-02-08T14:03:15.546Z,33.30
2023-02-08T14:05:53.288Z,33.50
2023-02-08T14:08:29.046Z,31.00
2023-02-08T14:11:12.083Z,32.60
2023-02-08T14:14:00.430Z,37.40
2023-02-08T14:16:42.399Z,36.50
2023-02-08T14:19:15.613Z,39.10
2023-02-08T14:24:47.059Z,34.70
2023-02-08T14:27:26.260Z,36.60
2023-02-08T14:29:57.031Z,38.70
2023-02-08T14:32:26.047Z,34.80
2023-02-08T14:35:14.555Z,33.70
2023-02-08T14:37:42.938Z,36.40
2023-02-08T14:40:25.073Z,37.90
2023-02-08T14:42:52.523Z,41.20
2023-02-08T14:45:38.910Z,44.30
2023-02-08T14:48:28.327Z,36.50
2023-02-08T14:51:10.672Z,36.60
2023-02-08T14:53:57.093Z,32.20
2023-02-08T14:56:27.745Z,32.80
2023-02-08T14:59:04.616Z,38.80
2023-02-08T15:01:43.935Z,41.10
2023-02-08T15:04:12.032Z,45.40
2023-02-08T15:06:39.498Z,46.00
2023-02-08T15:09:15.378Z,50.80
2023-02-08T15:11:42.647Z,61.40
2023-02-08T15:14:16.652Z,69.30
2023-02-08T15:16:44.406Z,53.70
2023-02-08T15:19:24.264Z,51.20
2023-02-08T15:21:51.321Z,44.60
2023-02-08T15:24:29.243Z,42.60
2023-02-08T15:26:57.193Z,72.00
2023-02-08T15:29:39.106Z,50.20
2023-02-08T15:32:16.834Z,47.90
2023-02-08T15:34:44.679Z,56.70
2023-02-08T15:37:15.350Z,59.30
2023-02-08T15:39:42.527Z,56.30
2023-02-08T15:42:21.023Z,53.70
2023-02-08T15:44:51.606Z,53.30
2023-02-08T15:47:27.860Z,50.90
2023-02-08T15:49:54.872Z,49.90
2023-02-08T15:52:24.040Z,48.10
2023-02-08T15:54:51.052Z,48.70
2023-02-08T15:57:44.804Z,55.20
2023-02-08T16:00:20.196Z,64.90
2023-02-08T16:03:02.233Z,60.30
2023-02-08T16:05:34.534Z,54.70
2023-02-08T16:08:02.674Z,61.30
2023-02-08T16:10:38.005Z,66.40
2023-02-08T16:13:06.976Z,61.90
2023-02-08T16:15:41.740Z,61.70
2023-02-08T16:18:31.921Z,72.90
2023-02-08T16:20:59.747Z,68.30
2023-02-08T16:23:33.885Z,66.50
2023-02-08T16:26:26.040Z,66.40
2023-02-08T16:28:58.518Z,65.60
2023-02-08T16:31:28.956Z,70.00
2023-02-08T16:33:57.728Z,84.00
2023-02-08T16:36:25.715Z,98.00
2023-02-08T16:39:14.376Z,102.60
2023-02-08T16:42:12.921Z,113.20
2023-02-08T16:44:41.521Z,126.10
2023-02-08T16:47:25.962Z,127.70
2023-02-08T16:49:53.085Z,146.30
2023-02-08T16:52:20.529Z,148.30
2023-02-08T16:54:47.395Z,131.90
2023-02-08T16:57:14.613Z,130.50
2023-02-08T16:59:42.356Z,130.60
2023-02-08T17:02:12.768Z,123.40
2023-02-08T17:04:39.745Z,115.20
2023-02-08T17:07:12.096Z,130.30
2023-02-08T17:09:38.950Z,126.20
2023-02-08T17:12:21.475Z,124.80
2023-02-08T17:14:53.968Z,131.30
2023-02-08T17:17:21.078Z,133.30
2023-02-08T17:19:47.963Z,142.30
2023-02-08T17:22:15.054Z,142.90
2023-02-08T17:24:42.384Z,151.50
2023-02-08T17:27:12.274Z,154.40
2023-02-08T17:29:39.358Z,158.80
2023-02-08T17:32:06.455Z,152.10
2023-02-08T17:34:35.224Z,169.50
2023-02-08T17:37:03.153Z,149.00
2023-02-08T17:39:30.214Z,157.80
2023-02-08T17:41:58.882Z,141.00
2023-02-08T17:44:25.848Z,150.10
2023-02-08T17:46:52.741Z,154.20
2023-02-08T17:49:19.639Z,145.00
2023-02-08T17:51:46.466Z,144.60
2023-02-08T17:54:14.421Z,150.90
2023-02-08T17:56:41.410Z,139.30
2023-02-08T17:59:08.314Z,145.90
2023-02-08T18:01:35.828Z,160.10
2023-02-08T18:04:03.269Z,164.60
2023-02-08T18:06:31.155Z,169.30
2023-02-08T18:09:08.435Z,158.80
2023-02-08T18:11:35.331Z,136.90
2023-02-08T18:14:02.842Z,130.70
2023-02-08T18:16:35.664Z,136.00
2023-02-08T18:19:02.656Z,134.60
2023-02-08T18:21:32.544Z,132.20
2023-02-08T18:24:01.823Z,130.00
2023-02-08T18:26:30.130Z,127.00
2023-02-08T18:28:57.236Z,130.30
2023-02-08T18:31:25.236Z,130.30
2023-02-08T18:33:53.362Z,127.40
2023-02-08T18:36:20.809Z,133.30
2023-02-08T18:38:49.138Z,139.40
2023-02-08T18:41:24.314Z,137.60
2023-02-08T18:43:52.690Z,139.20
2023-02-08T18:46:20.538Z,141.80
2023-02-08T18:48:48.039Z,156.80
2023-02-08T18:51:18.956Z,261.20
2023-02-08T18:53:50.912Z,191.00
2023-02-08T18:56:21.170Z,162.40
2023-02-08T18:58:48.490Z,155.10
2023-02-08T19:01:17.726Z,145.20
2023-02-08T19:03:45.720Z,160.90
2023-02-08T19:06:15.753Z,153.50
2023-02-08T19:08:44.388Z,148.50
2023-02-08T19:11:16.726Z,148.70
2023-02-08T19:13:44.793Z,137.40
2023-02-08T19:16:11.855Z,145.20
2023-02-08T19:18:43.627Z,146.40
2023-02-08T19:21:12.346Z,141.90
2023-02-08T19:23:40.086Z,140.90
2023-02-08T19:26:09.086Z,141.30
2023-02-08T19:45:55.048Z,136.80
2023-02-08T19:51:01.090Z,136.90
2023-02-08T19:53:30.170Z,148.70
2023-02-08T19:56:22.554Z,141.40
2023-02-08T19:58:51.004Z,147.80
2023-02-08T20:01:19.971Z,150.60
2023-02-08T20:03:49.070Z,155.90
2023-02-08T20:06:21.574Z,160.40
2023-02-08T20:08:51.246Z,165.20
2023-02-08T20:11:26.332Z,187.10
2023-02-08T20:13:56.728Z,219.30
2023-02-08T20:16:26.964Z,187.00
2023-02-08T20:18:59.902Z,194.80
2023-02-08T20:21:27.103Z,175.10
2023-02-08T20:23:54.396Z,186.80
2023-02-08T20:26:26.437Z,188.20
2023-02-08T20:28:59.071Z,174.70
2023-02-08T20:31:28.701Z,158.60
2023-02-08T20:33:57.419Z,174.10
2023-02-08T20:36:26.269Z,170.00
2023-02-08T20:38:54.120Z,145.00
2023-02-08T20:41:21.499Z,156.10
2023-02-08T20:43:48.343Z,161.10
2023-02-08T20:46:17.559Z,153.00
2023-02-08T20:48:44.707Z,158.40
2023-02-08T20:51:14.503Z,160.90
2023-02-08T20:53:42.113Z,160.60
2023-02-08T20:56:20.810Z,156.00
2023-02-08T20:58:48.188Z,158.30
2023-02-08T21:01:18.712Z,161.10
2023-02-08T21:03:45.830Z,156.60
2023-02-08T21:06:13.371Z,161.40
2023-02-08T21:08:40.341Z,185.50
2023-02-08T21:11:08.798Z,171.40
2023-02-08T21:13:36.519Z,174.10
2023-02-08T21:16:05.298Z,184.00
2023-02-08T21:18:32.186Z,171.90
2023-02-08T21:21:00.844Z,179.10
2023-02-08T21:23:27.908Z,183.60
2023-02-08T21:25:54.991Z,191.20
2023-02-08T21:28:21.917Z,178.90
2023-02-08T21:31:00.051Z,181.00
2023-02-08T21:33:27.349Z,173.10
2023-02-08T21:35:54.511Z,175.50
2023-02-08T21:38:21.375Z,173.40
2023-02-08T21:40:48.769Z,174.80
2023-02-08T21:43:41.216Z,165.10
2023-02-08T21:46:08.707Z,162.90
2023-02-08T21:48:55.860Z,162.90
2023-02-08T21:51:42.775Z,153.40
2023-02-08T21:54:39.675Z,167.00
2023-02-08T21:57:28.666Z,157.00
2023-02-08T22:00:05.311Z,158.30
2023-02-08T22:02:39.645Z,166.60
2023-02-08T22:05:06.819Z,166.70
2023-02-08T22:07:41.847Z,162.50
2023-02-08T22:10:09.746Z,161.90
2023-02-08T22:12:39.671Z,163.00
2023-02-08T22:15:08.498Z,154.60
2023-02-08T22:17:37.262Z,171.90
2023-02-08T22:20:05.652Z,158.30
2023-02-08T22:22:32.934Z,147.30
2023-02-08T22:24:59.992Z,149.00
2023-02-08T22:27:27.276Z,163.10
2023-02-08T22:29:54.098Z,160.60
2023-02-08T22:32:21.636Z,138.40
2023-02-08T22:34:48.584Z,156.70
2023-02-08T22:37:16.117Z,168.00
2023-02-08T22:39:43.078Z,149.50
2023-02-08T22:42:13.134Z,159.10
2023-02-08T22:44:41.763Z,166.50
2023-02-08T22:47:09.301Z,172.10
2023-02-08T22:49:36.304Z,159.70
2023-02-08T22:52:05.611Z,153.20
2023-02-08T22:54:32.661Z,161.50
2023-02-08T22:56:59.989Z,151.20
2023-02-08T22:59:27.017Z,149.80
2023-02-08T23:01:53.948Z,154.50
2023-02-08T23:04:20.854Z,153.00
2023-02-08T23:06:48.240Z,155.60
2023-02-08T23:09:15.456Z,153.50
2023-02-08T23:11:42.904Z,171.10
2023-02-08T23:14:10.199Z,155.60
2023-02-08T23:16:37.370Z,161.80
2023-02-08T23:19:04.651Z,157.00
2023-02-08T23:21:32.566Z,171.60
2023-02-08T23:23:59.427Z,162.20
2023-02-08T23:26:26.454Z,153.40
2023-02-08T23:28:53.469Z,155.70
2023-02-08T23:31:20.733Z,155.40
2023-02-08T23:33:47.797Z,166.30
2023-02-08T23:36:17.608Z,164.00
2023-02-08T23:38:44.554Z,154.50
2023-02-08T23:41:14.486Z,165.80
2023-02-08T23:43:41.522Z,156.20
2023-02-08T23:46:10.087Z,163.00
2023-02-08T23:48:39.302Z,163.50
2023-02-08T23:51:06.753Z,147.40
2023-02-08T23:53:35.314Z,164.50
2023-02-08T23:56:10.019Z,157.90
2023-02-08T23:58:37.265Z,152.00
